sensor_id;sensor_type;location;lat;lon;timestamp;pressure;altitude;pressure_sealevel;temperature;humidity
63731;BME280;49747;51.334;6.830;2023-01-15T00:00:17;99484.47;;;11.82;79.96
63731;BME280;49747;51.334;6.830;2023-01-15T00:02:44;99482.66;;;11.83;80.30
63731;BME280;49747;51.334;6.830;2023-01-15T00:05:11;99480.84;;;11.83;80.21
63731;BME280;49747;51.334;6.830;2023-01-15T00:07:37;99470.31;;;11.82;80.71
63731;BME280;49747;51.334;6.830;2023-01-15T00:10:04;99468.78;;;11.79;80.41
63731;BME280;49747;51.334;6.830;2023-01-15T00:12:31;99466.00;;;11.81;81.16
63731;BME280;49747;51.334;6.830;2023-01-15T00:14:57;99481.09;;;11.80;80.52
63731;BME280;49747;51.334;6.830;2023-01-15T00:17:24;99478.59;;;11.79;80.17
63731;BME280;49747;51.334;6.830;2023-01-15T00:19:51;99490.91;;;11.80;80.33
63731;BME280;49747;51.334;6.830;2023-01-15T00:22:18;99477.75;;;11.78;80.07
63731;BME280;49747;51.334;6.830;2023-01-15T00:24:44;99498.22;;;11.78;81.26
63731;BME280;49747;51.334;6.830;2023-01-15T00:27:29;99481.53;;;11.76;80.30
63731;BME280;49747;51.334;6.830;2023-01-15T00:30:09;99492.91;;;11.78;80.76
63731;BME280;49747;51.334;6.830;2023-01-15T00:32:38;99484.81;;;11.70;80.35
63731;BME280;49747;51.334;6.830;2023-01-15T00:35:05;99483.66;;;11.72;80.66
63731;BME280;49747;51.334;6.830;2023-01-15T00:37:32;99486.03;;;11.75;80.50
63731;BME280;49747;51.334;6.830;2023-01-15T00:39:58;99472.72;;;11.75;80.70
63731;BME280;49747;51.334;6.830;2023-01-15T00:42:25;99462.09;;;11.75;80.44
63731;BME280;49747;51.334;6.830;2023-01-15T00:44:53;99446.78;;;11.59;80.29
63731;BME280;49747;51.334;6.830;2023-01-15T00:47:19;99429.72;;;11.52;79.03
63731;BME280;49747;51.334;6.830;2023-01-15T00:49:46;99431.56;;;11.52;79.59
63731;BME280;49747;51.334;6.830;2023-01-15T00:52:14;99429.25;;;11.39;79.05
63731;BME280;49747;51.334;6.830;2023-01-15T00:54:41;99450.38;;;11.41;79.36
63731;BME280;49747;51.334;6.830;2023-01-15T00:57:07;99437.06;;;11.41;80.05
63731;BME280;49747;51.334;6.830;2023-01-15T00:59:36;99439.72;;;11.41;80.49
63731;BME280;49747;51.334;6.830;2023-01-15T01:02:03;99456.38;;;11.43;80.72
63731;BME280;49747;51.334;6.830;2023-01-15T01:04:30;99439.44;;;11.44;80.77
63731;BME280;49747;51.334;6.830;2023-01-15T01:06:57;99413.75;;;11.34;79.27
63731;BME280;49747;51.334;6.830;2023-01-15T01:09:23;99415.78;;;11.41;79.09
63731;BME280;49747;51.334;6.830;2023-01-15T01:11:50;99425.22;;;11.35;79.47
63731;BME280;49747;51.334;6.830;2023-01-15T01:14:16;99446.03;;;11.40;79.54
63731;BME280;49747;51.334;6.830;2023-01-15T01:16:43;99454.72;;;11.42;79.03
63731;BME280;49747;51.334;6.830;2023-01-15T01:19:20;99456.69;;;11.40;78.72
63731;BME280;49747;51.334;6.830;2023-01-15T01:21:48;99467.31;;;11.40;78.40
63731;BME280;49747;51.334;6.830;2023-01-15T01:24:18;99462.88;;;11.30;78.18
63731;BME280;49747;51.334;6.830;2023-01-15T01:26:46;99470.81;;;11.40;78.20
63731;BME280;49747;51.334;6.830;2023-01-15T01:29:14;99484.94;;;11.41;77.94
63731;BME280;49747;51.334;6.830;2023-01-15T01:31:41;99476.28;;;11.39;77.36
63731;BME280;49747;51.334;6.830;2023-01-15T01:34:09;99488.59;;;11.40;77.85
63731;BME280;49747;51.334;6.830;2023-01-15T01:36:38;99487.75;;;11.39;77.02
63731;BME280;49747;51.334;6.830;2023-01-15T01:39:07;99486.09;;;11.38;77.44
63731;BME280;49747;51.334;6.830;2023-01-15T01:41:35;99479.38;;;11.34;76.67
63731;BME280;49747;51.334;6.830;2023-01-15T01:44:06;99483.72;;;11.35;75.51
63731;BME280;49747;51.334;6.830;2023-01-15T01:46:35;99479.50;;;11.32;75.93
63731;BME280;49747;51.334;6.830;2023-01-15T01:49:10;99480.22;;;11.34;75.88
63731;BME280;49747;51.334;6.830;2023-01-15T01:51:50;99482.88;;;11.34;75.11
63731;BME280;49747;51.334;6.830;2023-01-15T01:54:20;99482.16;;;11.32;74.85
63731;BME280;49747;51.334;6.830;2023-01-15T01:56:49;99486.09;;;11.28;75.01
63731;BME280;49747;51.334;6.830;2023-01-15T01:59:18;99503.44;;;11.32;74.74
63731;BME280;49747;51.334;6.830;2023-01-15T02:01:47;99496.44;;;11.31;74.52
63731;BME280;49747;51.334;6.830;2023-01-15T02:04:19;99500.09;;;11.30;74.21
63731;BME280;49747;51.334;6.830;2023-01-15T02:06:47;99485.97;;;11.30;74.10
63731;BME280;49747;51.334;6.830;2023-01-15T02:09:13;99499.94;;;11.32;74.11
63731;BME280;49747;51.334;6.830;2023-01-15T02:11:40;99506.97;;;11.33;73.39
63731;BME280;49747;51.334;6.830;2023-01-15T02:14:30;99498.97;;;11.33;73.46
63731;BME280;49747;51.334;6.830;2023-01-15T02:19:53;99465.97;;;11.26;72.39
63731;BME280;49747;51.334;6.830;2023-01-15T02:25:17;99477.28;;;11.28;72.24
63731;BME280;49747;51.334;6.830;2023-01-15T02:27:55;99468.19;;;11.30;72.33
63731;BME280;49747;51.334;6.830;2023-01-15T02:30:34;99469.59;;;11.25;72.84
63731;BME280;49747;51.334;6.830;2023-01-15T02:33:13;99471.31;;;11.26;73.04
63731;BME280;49747;51.334;6.830;2023-01-15T02:35:47;99471.13;;;11.27;72.48
63731;BME280;49747;51.334;6.830;2023-01-15T02:38:21;99461.88;;;11.31;72.01
63731;BME280;49747;51.334;6.830;2023-01-15T02:40:53;99442.19;;;11.24;71.53
63731;BME280;49747;51.334;6.830;2023-01-15T02:43:22;99428.34;;;11.21;71.72
63731;BME280;49747;51.334;6.830;2023-01-15T02:45:53;99429.59;;;11.26;71.82
63731;BME280;49747;51.334;6.830;2023-01-15T02:48:25;99437.56;;;11.26;71.53
63731;BME280;49747;51.334;6.830;2023-01-15T02:51:02;99411.16;;;11.15;71.41
63731;BME280;49747;51.334;6.830;2023-01-15T02:53:33;99437.84;;;11.23;71.08
63731;BME280;49747;51.334;6.830;2023-01-15T02:56:07;99448.22;;;11.26;71.74
63731;BME280;49747;51.334;6.830;2023-01-15T02:58:43;99444.72;;;11.26;71.99
63731;BME280;49747;51.334;6.830;2023-01-15T03:01:14;99456.03;;;11.28;71.72
63731;BME280;49747;51.334;6.830;2023-01-15T03:03:58;99444.56;;;11.27;71.59
63731;BME280;49747;51.334;6.830;2023-01-15T03:08:58;99443.00;;;11.25;70.88
63731;BME280;49747;51.334;6.830;2023-01-15T03:11:25;99432.28;;;11.17;70.71
63731;BME280;49747;51.334;6.830;2023-01-15T03:14:04;99451.97;;;11.24;70.82
63731;BME280;49747;51.334;6.830;2023-01-15T03:16:38;99442.19;;;11.24;71.12
63731;BME280;49747;51.334;6.830;2023-01-15T03:26:54;99430.88;;;11.22;71.47
63731;BME280;49747;51.334;6.830;2023-01-15T03:29:23;99419.84;;;11.17;71.68
63731;BME280;49747;51.334;6.830;2023-01-15T03:31:52;99418.16;;;11.16;70.70
63731;BME280;49747;51.334;6.830;2023-01-15T03:34:19;99419.84;;;11.17;71.75
63731;BME280;49747;51.334;6.830;2023-01-15T03:36:47;99409.50;;;11.14;71.47
63731;BME280;49747;51.334;6.830;2023-01-15T03:39:13;99409.22;;;11.17;71.10
63731;BME280;49747;51.334;6.830;2023-01-15T03:42:02;99398.72;;;11.16;70.87
63731;BME280;49747;51.334;6.830;2023-01-15T03:47:31;99404.72;;;11.18;71.52
63731;BME280;49747;51.334;6.830;2023-01-15T03:50:09;99422.34;;;11.19;71.60
63731;BME280;49747;51.334;6.830;2023-01-15T03:55:53;99408.34;;;11.17;71.39
63731;BME280;49747;51.334;6.830;2023-01-15T03:58:28;99420.53;;;11.19;71.49
63731;BME280;49747;51.334;6.830;2023-01-15T04:00:58;99412.00;;;11.16;71.45
63731;BME280;49747;51.334;6.830;2023-01-15T04:03:29;99413.66;;;11.17;71.30
63731;BME280;49747;51.334;6.830;2023-01-15T04:05:58;99420.81;;;11.16;71.35
63731;BME280;49747;51.334;6.830;2023-01-15T04:08:31;99409.22;;;11.17;71.55
63731;BME280;49747;51.334;6.830;2023-01-15T04:11:00;99417.47;;;11.14;71.94
63731;BME280;49747;51.334;6.830;2023-01-15T04:13:37;99417.59;;;11.13;71.60
63731;BME280;49747;51.334;6.830;2023-01-15T04:16:05;99428.78;;;11.16;71.66
63731;BME280;49747;51.334;6.830;2023-01-15T04:18:31;99418.16;;;11.16;71.49
63731;BME280;49747;51.334;6.830;2023-01-15T04:20:58;99421.81;;;11.15;71.82
63731;BME280;49747;51.334;6.830;2023-01-15T04:23:25;99423.78;;;11.13;71.36
63731;BME280;49747;51.334;6.830;2023-01-15T04:25:51;99430.91;;;11.13;71.77
63731;BME280;49747;51.334;6.830;2023-01-15T04:28:18;99425.44;;;11.14;71.74
63731;BME280;49747;51.334;6.830;2023-01-15T04:30:45;99435.25;;;11.14;71.55
63731;BME280;49747;51.334;6.830;2023-01-15T04:33:11;99436.09;;;11.14;72.26
63731;BME280;49747;51.334;6.830;2023-01-15T04:35:38;99439.72;;;11.13;71.93
63731;BME280;49747;51.334;6.830;2023-01-15T04:38:04;99440.69;;;11.12;71.20
63731;BME280;49747;51.334;6.830;2023-01-15T04:40:31;99415.44;;;10.98;71.77
63731;BME280;49747;51.334;6.830;2023-01-15T04:43:16;99430.91;;;11.13;71.49
63731;BME280;49747;51.334;6.830;2023-01-15T04:46:02;99418.75;;;11.10;71.15
63731;BME280;49747;51.334;6.830;2023-01-15T04:48:28;99415.94;;;11.12;72.00
63731;BME280;49747;51.334;6.830;2023-01-15T04:51:01;99415.38;;;11.08;71.90
63731;BME280;49747;51.334;6.830;2023-01-15T04:53:28;99400.59;;;11.05;71.85
63731;BME280;49747;51.334;6.830;2023-01-15T04:56:02;99425.56;;;11.13;71.02
63731;BME280;49747;51.334;6.830;2023-01-15T04:58:30;99423.78;;;11.13;71.65
63731;BME280;49747;51.334;6.830;2023-01-15T05:00:57;99426.72;;;11.10;72.26
63731;BME280;49747;51.334;6.830;2023-01-15T05:03:27;99433.72;;;11.11;70.89
63731;BME280;49747;51.334;6.830;2023-01-15T05:05:54;99429.38;;;11.10;71.28
63731;BME280;49747;51.334;6.830;2023-01-15T05:08:20;99440.69;;;11.12;71.36
63731;BME280;49747;51.334;6.830;2023-01-15T05:10:47;99424.50;;;11.05;70.88
63731;BME280;49747;51.334;6.830;2023-01-15T05:13:13;99428.41;;;11.11;71.76
63731;BME280;49747;51.334;6.830;2023-01-15T05:15:40;99423.91;;;11.12;71.58
63731;BME280;49747;51.334;6.830;2023-01-15T05:18:08;99424.75;;;11.12;72.05
63731;BME280;49747;51.334;6.830;2023-01-15T05:20:36;99438.03;;;11.12;72.32
63731;BME280;49747;51.334;6.830;2023-01-15T05:23:04;99444.34;;;11.11;72.57
63731;BME280;49747;51.334;6.830;2023-01-15T05:25:31;99443.34;;;11.12;72.19
63731;BME280;49747;51.334;6.830;2023-01-15T05:27:57;99445.19;;;11.12;71.77
63731;BME280;49747;51.334;6.830;2023-01-15T05:30:24;99443.50;;;11.10;71.31
63731;BME280;49747;51.334;6.830;2023-01-15T05:32:51;99437.63;;;11.07;71.20
63731;BME280;49747;51.334;6.830;2023-01-15T05:35:17;99439.31;;;11.08;73.57
63731;BME280;49747;51.334;6.830;2023-01-15T05:37:44;99439.31;;;11.08;72.50
63731;BME280;49747;51.334;6.830;2023-01-15T05:40:11;99434.81;;;11.08;72.64
63731;BME280;49747;51.334;6.830;2023-01-15T05:42:37;99427.00;;;11.07;72.42
63731;BME280;49747;51.334;6.830;2023-01-15T05:45:04;99429.66;;;11.07;72.52
63731;BME280;49747;51.334;6.830;2023-01-15T05:47:31;99412.06;;;11.06;72.26
63731;BME280;49747;51.334;6.830;2023-01-15T05:49:58;99414.72;;;11.06;71.99
63731;BME280;49747;51.334;6.830;2023-01-15T05:52:24;99420.59;;;11.00;71.98
63731;BME280;49747;51.334;6.830;2023-01-15T05:54:51;99435.13;;;11.05;72.68
63731;BME280;49747;51.334;6.830;2023-01-15T05:57:17;99431.63;;;11.05;72.19
63731;BME280;49747;51.334;6.830;2023-01-15T05:59:44;99431.63;;;11.05;73.39
63731;BME280;49747;51.334;6.830;2023-01-15T06:02:10;99427.56;;;11.01;73.22
63731;BME280;49747;51.334;6.830;2023-01-15T06:04:37;99434.97;;;11.07;72.02
63731;BME280;49747;51.334;6.830;2023-01-15T06:07:04;99442.81;;;11.08;73.00
63731;BME280;49747;51.334;6.830;2023-01-15T06:09:30;99444.06;;;11.04;71.89
63731;BME280;49747;51.334;6.830;2023-01-15T06:11:57;99447.84;;;11.12;72.41
63731;BME280;49747;51.334;6.830;2023-01-15T06:14:23;99439.47;;;11.06;72.20
63731;BME280;49747;51.334;6.830;2023-01-15T06:16:50;99447.72;;;11.03;72.68
63731;BME280;49747;51.334;6.830;2023-01-15T06:19:17;99456.78;;;11.10;73.57
63731;BME280;49747;51.334;6.830;2023-01-15T06:21:44;99456.78;;;11.10;72.32
63731;BME280;49747;51.334;6.830;2023-01-15T06:24:11;99457.63;;;11.11;72.82
63731;BME280;49747;51.334;6.830;2023-01-15T06:26:38;99466.72;;;11.08;71.71
63731;BME280;49747;51.334;6.830;2023-01-15T06:29:05;99459.28;;;11.12;73.35
63731;BME280;49747;51.334;6.830;2023-01-15T06:31:31;99458.63;;;11.10;72.17
63731;BME280;49747;51.334;6.830;2023-01-15T06:33:58;99454.81;;;11.13;73.02
63731;BME280;49747;51.334;6.830;2023-01-15T06:36:26;99452.72;;;11.16;72.30
63731;BME280;49747;51.334;6.830;2023-01-15T06:38:53;99451.19;;;11.14;72.02
63731;BME280;49747;51.334;6.830;2023-01-15T06:41:22;99461.84;;;11.14;72.35
63731;BME280;49747;51.334;6.830;2023-01-15T06:44:12;99458.19;;;11.15;72.66
63731;BME280;49747;51.334;6.830;2023-01-15T06:47:01;99464.50;;;11.14;72.21
63731;BME280;49747;51.334;6.830;2023-01-15T06:49:48;99466.44;;;11.12;72.93
63731;BME280;49747;51.334;6.830;2023-01-15T06:52:17;99461.84;;;11.14;72.99
63731;BME280;49747;51.334;6.830;2023-01-15T06:54:43;99453.84;;;11.14;72.23
63731;BME280;49747;51.334;6.830;2023-01-15T06:57:10;99458.47;;;11.12;71.04
63731;BME280;49747;51.334;6.830;2023-01-15T06:59:36;99449.94;;;11.08;72.74
63731;BME280;49747;51.334;6.830;2023-01-15T07:02:03;99462.94;;;11.11;72.41
63731;BME280;49747;51.334;6.830;2023-01-15T07:04:30;99448.94;;;11.09;71.94
63731;BME280;49747;51.334;6.830;2023-01-15T07:06:57;99454.13;;;11.10;71.72
63731;BME280;49747;51.334;6.830;2023-01-15T07:09:23;99446.59;;;11.06;72.72
63731;BME280;49747;51.334;6.830;2023-01-15T07:11:50;99450.94;;;11.07;72.22
63731;BME280;49747;51.334;6.830;2023-01-15T07:14:18;99451.50;;;11.01;70.98
63731;BME280;49747;51.334;6.830;2023-01-15T07:16:45;99474.56;;;11.10;73.12
63731;BME280;49747;51.334;6.830;2023-01-15T07:19:12;99475.53;;;11.09;73.52
63731;BME280;49747;51.334;6.830;2023-01-15T07:21:39;99468.81;;;11.05;72.95
63731;BME280;49747;51.334;6.830;2023-01-15T07:24:07;99467.88;;;11.06;71.47
63731;BME280;49747;51.334;6.830;2023-01-15T07:26:34;99480.88;;;10.99;70.19
63731;BME280;49747;51.334;6.830;2023-01-15T07:29:01;99491.06;;;11.04;70.73
63731;BME280;49747;51.334;6.830;2023-01-15T07:31:28;99478.50;;;10.96;70.02
63731;BME280;49747;51.334;6.830;2023-01-15T07:33:55;99491.22;;;11.02;70.43
63731;BME280;49747;51.334;6.830;2023-01-15T07:36:23;99498.22;;;11.03;70.22
63731;BME280;49747;51.334;6.830;2023-01-15T07:38:50;99472.13;;;10.89;71.98
63731;BME280;49747;51.334;6.830;2023-01-15T07:41:17;99484.53;;;10.98;72.23
63731;BME280;49747;51.334;6.830;2023-01-15T07:44:02;99496.66;;;11.01;71.82
63731;BME280;49747;51.334;6.830;2023-01-15T07:46:47;99492.50;;;10.98;72.81
63731;BME280;49747;51.334;6.830;2023-01-15T07:49:32;99499.63;;;10.98;72.64
63731;BME280;49747;51.334;6.830;2023-01-15T07:52:12;99498.81;;;10.97;71.24
63731;BME280;49747;51.334;6.830;2023-01-15T07:54:39;99515.59;;;10.98;71.19
63731;BME280;49747;51.334;6.830;2023-01-15T07:57:06;99509.28;;;10.99;72.38
63731;BME280;49747;51.334;6.830;2023-01-15T07:59:33;99509.28;;;10.99;71.40
63731;BME280;49747;51.334;6.830;2023-01-15T08:02:00;99510.13;;;10.99;72.04
63731;BME280;49747;51.334;6.830;2023-01-15T08:04:26;99514.59;;;10.99;71.56
63731;BME280;49747;51.334;6.830;2023-01-15T08:06:53;99518.91;;;11.00;72.54
63731;BME280;49747;51.334;6.830;2023-01-15T08:09:19;99506.63;;;10.99;73.28
63731;BME280;49747;51.334;6.830;2023-01-15T08:11:46;99520.91;;;10.98;72.58
63731;BME280;49747;51.334;6.830;2023-01-15T08:14:31;99530.81;;;10.96;71.85
63731;BME280;49747;51.334;6.830;2023-01-15T08:17:16;99534.03;;;10.99;74.17
63731;BME280;49747;51.334;6.830;2023-01-15T08:19:43;99540.19;;;11.00;72.36
63731;BME280;49747;51.334;6.830;2023-01-15T08:22:10;99545.22;;;11.03;70.22
63731;BME280;49747;51.334;6.830;2023-01-15T08:24:37;99544.09;;;11.05;71.69
63731;BME280;49747;51.334;6.830;2023-01-15T08:27:04;99550.53;;;11.03;71.18
63731;BME280;49747;51.334;6.830;2023-01-15T08:29:31;99555.84;;;11.03;71.01
63731;BME280;49747;51.334;6.830;2023-01-15T08:31:58;99563.66;;;11.04;71.91
63731;BME280;49747;51.334;6.830;2023-01-15T08:34:25;99555.28;;;10.99;70.79
63731;BME280;49747;51.334;6.830;2023-01-15T08:36:52;99553.47;;;11.00;71.80
63731;BME280;49747;51.334;6.830;2023-01-15T08:39:22;99566.31;;;11.04;71.03
63731;BME280;49747;51.334;6.830;2023-01-15T08:41:49;99569.41;;;11.00;69.44
63731;BME280;49747;51.334;6.830;2023-01-15T08:44:15;99560.44;;;11.01;71.29
63731;BME280;49747;51.334;6.830;2023-01-15T08:46:42;99554.72;;;10.96;69.72
63731;BME280;49747;51.334;6.830;2023-01-15T08:49:10;99570.13;;;11.02;70.56
63731;BME280;49747;51.334;6.830;2023-01-15T08:51:37;99575.44;;;11.02;70.25
63731;BME280;49747;51.334;6.830;2023-01-15T08:54:03;99550.69;;;10.92;66.09
63731;BME280;49747;51.334;6.830;2023-01-15T08:56:30;99572.50;;;10.95;70.57
63731;BME280;49747;51.334;6.830;2023-01-15T08:58:57;99582.00;;;10.98;71.19
63731;BME280;49747;51.334;6.830;2023-01-15T09:01:23;99582.13;;;10.96;70.47
63731;BME280;49747;51.334;6.830;2023-01-15T09:03:50;99578.66;;;10.96;70.47
63731;BME280;49747;51.334;6.830;2023-01-15T09:06:16;99582.56;;;10.92;67.40
63731;BME280;49747;51.334;6.830;2023-01-15T09:08:43;99582.56;;;10.92;71.59
63731;BME280;49747;51.334;6.830;2023-01-15T09:11:09;99578.78;;;10.94;74.09
63731;BME280;49747;51.334;6.830;2023-01-15T09:13:38;99577.25;;;10.92;68.82
63731;BME280;49747;51.334;6.830;2023-01-15T09:16:06;99575.59;;;10.91;68.97
63731;BME280;49747;51.334;6.830;2023-01-15T09:18:33;99576.84;;;10.87;71.27
63731;BME280;49747;51.334;6.830;2023-01-15T09:21:01;99565.66;;;10.83;68.98
63731;BME280;49747;51.334;6.830;2023-01-15T09:23:28;99583.97;;;10.86;67.45
63731;BME280;49747;51.334;6.830;2023-01-15T09:26:01;99578.66;;;10.96;67.89
63731;BME280;49747;51.334;6.830;2023-01-15T09:28:28;99580.72;;;11.21;67.57
63731;BME280;49747;51.334;6.830;2023-01-15T09:30:55;99567.63;;;11.57;67.91
63731;BME280;49747;51.334;6.830;2023-01-15T09:33:22;99554.25;;;12.04;67.60
63731;BME280;49747;51.334;6.830;2023-01-15T09:35:48;99568.28;;;12.69;65.54
63731;BME280;49747;51.334;6.830;2023-01-15T09:38:17;99567.44;;;13.30;62.33
63731;BME280;49747;51.334;6.830;2023-01-15T09:40:52;99555.59;;;13.85;60.35
63731;BME280;49747;51.334;6.830;2023-01-15T09:46:21;99548.81;;;14.49;56.91
63731;BME280;49747;51.334;6.830;2023-01-15T09:54:10;99548.28;;;15.27;54.77
63731;BME280;49747;51.334;6.830;2023-01-15T09:56:42;99546.53;;;15.59;51.62
63731;BME280;49747;51.334;6.830;2023-01-15T09:59:19;99547.63;;;15.97;53.24
63731;BME280;49747;51.334;6.830;2023-01-15T10:01:48;99549.00;;;16.24;52.24
63731;BME280;49747;51.334;6.830;2023-01-15T10:04:37;99550.66;;;16.57;51.63
63731;BME280;49747;51.334;6.830;2023-01-15T10:07:24;99525.75;;;16.48;50.92
63731;BME280;49747;51.334;6.830;2023-01-15T10:10:04;99554.75;;;16.13;48.52
63731;BME280;49747;51.334;6.830;2023-01-15T10:12:35;99541.13;;;15.84;48.76
63731;BME280;49747;51.334;6.830;2023-01-15T10:15:24;99554.53;;;15.92;49.09
63731;BME280;49747;51.334;6.830;2023-01-15T10:17:55;99579.16;;;15.71;51.13
63731;BME280;49747;51.334;6.830;2023-01-15T10:20:44;99566.66;;;15.39;50.72
63731;BME280;49747;51.334;6.830;2023-01-15T10:23:20;99597.66;;;15.09;50.62
63731;BME280;49747;51.334;6.830;2023-01-15T10:26:13;99582.56;;;15.16;82.76
63731;BME280;49747;51.334;6.830;2023-01-15T10:28:58;99591.50;;;13.99;55.69
63731;BME280;49747;51.334;6.830;2023-01-15T10:31:57;99591.00;;;13.17;55.04
63731;BME280;49747;51.334;6.830;2023-01-15T10:34:32;99590.84;;;12.29;57.36
63731;BME280;49747;51.334;6.830;2023-01-15T10:45:12;99593.31;;;10.80;61.57
63731;BME280;49747;51.334;6.830;2023-01-15T10:47:43;99596.13;;;10.89;60.42
63731;BME280;49747;51.334;6.830;2023-01-15T10:50:24;99600.47;;;10.70;60.74
63731;BME280;49747;51.334;6.830;2023-01-15T10:53:14;99599.72;;;10.49;61.71
63731;BME280;49747;51.334;6.830;2023-01-15T10:55:49;99603.78;;;10.53;62.21
63731;BME280;49747;51.334;6.830;2023-01-15T10:58:43;99602.69;;;10.05;64.08
63731;BME280;49747;51.334;6.830;2023-01-15T11:01:15;99616.41;;;10.10;64.89
63731;BME280;49747;51.334;6.830;2023-01-15T11:03:44;99607.44;;;10.02;64.88
63731;BME280;49747;51.334;6.830;2023-01-15T11:06:19;99613.09;;;9.87;65.03
63731;BME280;49747;51.334;6.830;2023-01-15T11:08:52;99620.72;;;9.81;65.14
63731;BME280;49747;51.334;6.830;2023-01-15T11:11:42;99616.66;;;10.07;64.24
63731;BME280;49747;51.334;6.830;2023-01-15T11:14:41;99619.88;;;9.71;65.14
63731;BME280;49747;51.334;6.830;2023-01-15T11:17:41;99612.63;;;9.52;65.11
63731;BME280;49747;51.334;6.830;2023-01-15T11:20:33;99619.22;;;9.57;65.71
63731;BME280;49747;51.334;6.830;2023-01-15T11:23:09;99614.78;;;9.37;66.37
63731;BME280;49747;51.334;6.830;2023-01-15T11:25:38;99613.91;;;9.57;65.84
63731;BME280;49747;51.334;6.830;2023-01-15T11:28:12;99617.44;;;9.58;65.64
63731;BME280;49747;51.334;6.830;2023-01-15T11:30:41;99606.69;;;9.59;65.31
63731;BME280;49747;51.334;6.830;2023-01-15T11:33:24;99598.59;;;9.61;66.43
63731;BME280;49747;51.334;6.830;2023-01-15T11:35:58;99602.28;;;9.49;65.59
63731;BME280;49747;51.334;6.830;2023-01-15T11:38:30;99597.47;;;9.54;65.87
63731;BME280;49747;51.334;6.830;2023-01-15T11:41:00;99596.44;;;9.24;66.55
63731;BME280;49747;51.334;6.830;2023-01-15T11:43:30;99608.69;;;9.25;65.91
63731;BME280;49747;51.334;6.830;2023-01-15T11:46:28;99603.28;;;9.27;66.23
63731;BME280;49747;51.334;6.830;2023-01-15T11:49:27;99603.41;;;9.25;67.00
63731;BME280;49747;51.334;6.830;2023-01-15T11:52:15;99590.72;;;9.29;66.20
63731;BME280;49747;51.334;6.830;2023-01-15T11:54:46;99618.84;;;9.20;66.72
63731;BME280;49747;51.334;6.830;2023-01-15T11:57:30;99607.03;;;9.03;67.51
63731;BME280;49747;51.334;6.830;2023-01-15T11:59:58;99608.25;;;9.20;66.59
63731;BME280;49747;51.334;6.830;2023-01-15T12:02:34;99608.50;;;9.17;66.97
63731;BME280;49747;51.334;6.830;2023-01-15T12:05:20;99609.22;;;9.19;66.85
63731;BME280;49747;51.334;6.830;2023-01-15T12:07:50;99610.50;;;9.04;66.99
63731;BME280;49747;51.334;6.830;2023-01-15T12:10:21;99611.63;;;9.22;67.64
63731;BME280;49747;51.334;6.830;2023-01-15T12:13:50;99605.34;;;9.23;67.67
63731;BME280;49747;51.334;6.830;2023-01-15T12:18:45;99620.09;;;9.16;67.38
63731;BME280;49747;51.334;6.830;2023-01-15T12:24:30;99605.41;;;8.91;67.86
63731;BME280;49747;51.334;6.830;2023-01-15T12:27:35;99607.72;;;8.84;67.17
63731;BME280;49747;51.334;6.830;2023-01-15T12:33:18;99594.16;;;8.99;67.21
63731;BME280;49747;51.334;6.830;2023-01-15T12:35:52;99580.28;;;9.06;66.69
63731;BME280;49747;51.334;6.830;2023-01-15T12:41:18;99569.75;;;9.16;67.11
63731;BME280;49747;51.334;6.830;2023-01-15T12:43:51;99578.84;;;9.23;66.85
63731;BME280;49747;51.334;6.830;2023-01-15T12:46:40;99569.28;;;9.11;66.66
63731;BME280;49747;51.334;6.830;2023-01-15T12:49:38;99576.22;;;9.23;66.81
63731;BME280;49747;51.334;6.830;2023-01-15T12:52:10;99586.72;;;8.93;66.91
63731;BME280;49747;51.334;6.830;2023-01-15T12:54:47;99585.25;;;9.21;67.05
63731;BME280;49747;51.334;6.830;2023-01-15T12:57:37;99586.00;;;9.32;66.46
63731;BME280;49747;51.334;6.830;2023-01-15T13:05:42;99592.59;;;9.17;67.12
63731;BME280;49747;51.334;6.830;2023-01-15T13:10:52;99598.50;;;9.00;67.51
63731;BME280;49747;51.334;6.830;2023-01-15T13:13:29;99586.03;;;8.91;68.44
63731;BME280;49747;51.334;6.830;2023-01-15T13:16:18;99586.84;;;9.33;76.03
63731;BME280;49747;51.334;6.830;2023-01-15T13:21:34;99578.28;;;9.81;71.96
63731;BME280;49747;51.334;6.830;2023-01-15T13:29:50;99600.50;;;10.20;68.83
63731;BME280;49747;51.334;6.830;2023-01-15T13:32:28;99587.94;;;10.22;70.06
63731;BME280;49747;51.334;6.830;2023-01-15T13:37:51;99598.34;;;10.45;69.51
63731;BME280;49747;51.334;6.830;2023-01-15T13:40:47;99603.94;;;10.51;69.29
63731;BME280;49747;51.334;6.830;2023-01-15T13:43:29;99604.34;;;10.56;68.46
63731;BME280;49747;51.334;6.830;2023-01-15T13:45:58;99609.81;;;10.65;69.58
63731;BME280;49747;51.334;6.830;2023-01-15T13:51:37;99608.69;;;10.77;69.23
63731;BME280;49747;51.334;6.830;2023-01-15T13:54:12;99602.44;;;10.78;66.29
63731;BME280;49747;51.334;6.830;2023-01-15T13:56:41;99605.50;;;10.73;67.75
63731;BME280;49747;51.334;6.830;2023-01-15T14:02:17;99613.31;;;10.84;65.30
63731;BME280;49747;51.334;6.830;2023-01-15T14:04:46;99629.00;;;10.88;65.53
63731;BME280;49747;51.334;6.830;2023-01-15T14:07:29;99612.50;;;10.84;64.24
63731;BME280;49747;51.334;6.830;2023-01-15T14:13:03;99612.06;;;10.89;63.33
63731;BME280;49747;51.334;6.830;2023-01-15T14:15:49;99615.00;;;10.95;65.58
63731;BME280;49747;51.334;6.830;2023-01-15T14:27:04;99637.97;;;11.06;64.30
63731;BME280;49747;51.334;6.830;2023-01-15T14:30:12;99639.06;;;11.03;64.84
63731;BME280;49747;51.334;6.830;2023-01-15T14:32:57;99631.50;;;11.08;65.04
63731;BME280;49747;51.334;6.830;2023-01-15T14:35:25;99632.50;;;11.07;64.22
63731;BME280;49747;51.334;6.830;2023-01-15T14:38:03;99629.69;;;11.09;66.04
63731;BME280;49747;51.334;6.830;2023-01-15T14:40:33;99621.56;;;11.01;65.38
63731;BME280;49747;51.334;6.830;2023-01-15T14:43:09;99639.47;;;11.08;65.71
63731;BME280;49747;51.334;6.830;2023-01-15T14:45:42;99644.25;;;11.15;65.25
63731;BME280;49747;51.334;6.830;2023-01-15T14:48:38;99634.44;;;11.15;65.39
63731;BME280;49747;51.334;6.830;2023-01-15T14:51:10;99638.53;;;11.09;65.00
63731;BME280;49747;51.334;6.830;2023-01-15T14:53:39;99647.06;;;11.13;62.80
63731;BME280;49747;51.334;6.830;2023-01-15T14:56:20;99651.22;;;11.16;64.28